createdAt,value
2017-08-10T00:00:03.269Z,78.3
2017-08-10T00:05:03.035Z,77.72
2017-08-10T00:10:03.516Z,77.92
2017-08-10T00:15:02.944Z,78.01
2017-08-10T00:20:03.501Z,77.82
2017-08-10T00:25:03.040Z,77.82
2017-08-10T00:30:03.341Z,77.63
2017-08-10T00:35:02.808Z,77.44
2017-08-10T00:40:03.277Z,77.34
2017-08-10T00:45:03.594Z,77.15
2017-08-10T00:50:02.993Z,76.86
2017-08-10T00:55:03.409Z,76.67
2017-08-10T01:00:02.645Z,76.48
2017-08-10T01:05:03.124Z,76.39
2017-08-10T01:10:02.635Z,76
2017-08-10T01:15:02.955Z,75.91
2017-08-10T01:20:03.380Z,75.71
2017-08-10T01:25:02.673Z,75.34
2017-08-10T01:30:03.140Z,75.05
2017-08-10T01:35:02.657Z,75.05
2017-08-10T01:40:03.006Z,74.95
2017-08-10T01:45:03.336Z,74.76
2017-08-10T01:50:02.835Z,74.53
2017-08-10T01:55:03.168Z,74.24
2017-08-10T02:00:03.491Z,73.58
2017-08-10T02:05:02.846Z,73.39
2017-08-10T02:10:03.206Z,73.1
2017-08-10T02:15:03.530Z,72.91
2017-08-10T02:20:02.860Z,72.81
2017-08-10T02:25:03.156Z,72.62
2017-08-10T02:30:03.459Z,72.14
2017-08-10T02:35:02.875Z,71.86
2017-08-10T02:40:03.284Z,71.67
2017-08-10T02:45:02.693Z,71.47
2017-08-10T02:50:03.141Z,71.38
2017-08-10T02:55:02.684Z,71.19
2017-08-10T03:00:03.017Z,70.9
2017-08-10T03:05:03.324Z,71
2017-08-10T03:10:02.790Z,71.09
2017-08-10T03:15:03.127Z,71
2017-08-10T03:20:02.653Z,70.9
2017-08-10T03:25:03.148Z,70.61
2017-08-10T03:30:02.612Z,70.71
2017-08-10T03:35:03.006Z,70.42
2017-08-10T03:40:03.423Z,70.42
2017-08-10T03:45:02.709Z,69.95
2017-08-10T03:50:03.029Z,69.37
2017-08-10T03:55:03.326Z,68.41
2017-08-10T04:00:02.689Z,68.41
2017-08-10T04:05:02.972Z,68.41
2017-08-10T04:10:03.457Z,68.51
2017-08-10T04:15:02.937Z,68.41
2017-08-10T04:20:03.449Z,68.04
2017-08-10T04:25:03.042Z,67.75
2017-08-10T04:30:02.585Z,67.46
2017-08-10T04:35:03.125Z,67.08
2017-08-10T04:40:03.544Z,66.79
2017-08-10T04:45:02.980Z,66.13
2017-08-10T04:50:03.328Z,66.22
2017-08-10T04:55:02.840Z,66.13
2017-08-10T05:00:03.336Z,66.13
2017-08-10T05:05:03.592Z,66.13
2017-08-10T05:10:02.938Z,66.03
2017-08-10T05:15:03.346Z,66.03
2017-08-10T05:20:02.668Z,66.16
2017-08-10T05:25:03.161Z,65.97
2017-08-10T05:30:02.645Z,65.87
2017-08-10T05:35:03.142Z,65.48
2017-08-10T05:40:03.533Z,65.77
2017-08-10T05:45:02.845Z,66.16
2017-08-10T05:50:03.198Z,66.54
2017-08-10T05:55:03.535Z,66.92
2017-08-10T06:00:02.943Z,66.96
2017-08-10T06:05:03.250Z,66.96
2017-08-10T06:10:02.870Z,67.37
2017-08-10T06:15:03.262Z,67.85
2017-08-10T06:20:02.733Z,69.8
2017-08-10T06:25:03.125Z,70.28
2017-08-10T06:30:02.646Z,71.23
2017-08-10T06:35:03.095Z,71.14
2017-08-10T06:40:02.677Z,71.14
2017-08-10T06:45:03.089Z,71.23
2017-08-10T06:50:03.395Z,71.23
2017-08-10T06:55:02.694Z,70.95
2017-08-10T07:00:03.227Z,71.04
2017-08-10T07:05:02.699Z,71.37
2017-08-10T07:10:03.074Z,71.37
2017-08-10T07:15:03.500Z,71.56
2017-08-10T07:20:02.878Z,71.08
2017-08-10T07:25:03.374Z,70.98
2017-08-10T07:30:02.777Z,71.27
2017-08-10T07:35:03.155Z,72.07
2017-08-10T07:40:03.509Z,72.55
2017-08-10T07:45:02.854Z,72.94
2017-08-10T07:50:03.247Z,73.61
2017-08-10T07:55:03.538Z,73.74
2017-08-10T08:00:02.966Z,73.65
2017-08-10T08:05:03.495Z,74.02
2017-08-10T08:10:02.816Z,74.44
2017-08-10T08:15:03.273Z,74.73
2017-08-10T08:20:03.617Z,75.02
2017-08-10T08:25:02.913Z,74.64
2017-08-10T08:30:03.354Z,74.64
2017-08-10T08:35:02.813Z,75.12
2017-08-10T08:40:03.267Z,75.5
2017-08-10T08:45:03.591Z,76.07
2017-08-10T08:50:03.017Z,77.61
2017-08-10T08:55:03.521Z,78.38
2017-08-10T09:00:02.939Z,78.99
2017-08-10T09:05:03.315Z,80.24
2017-08-10T09:10:02.897Z,80.96
2017-08-10T09:15:03.244Z,82.3
2017-08-10T09:20:02.754Z,83.2
2017-08-10T09:25:03.041Z,85.32
2017-08-10T09:30:03.349Z,85.22
2017-08-10T09:35:02.762Z,85.89
2017-08-10T09:40:03.065Z,85.13
2017-08-10T09:45:03.409Z,85.41
2017-08-10T09:50:02.743Z,85.71
2017-08-10T09:55:03.253Z,85.03
2017-08-10T10:00:02.772Z,84.74
2017-08-10T10:05:03.259Z,84.03
2017-08-10T10:10:02.795Z,83.74
2017-08-10T10:15:03.282Z,83.64
2017-08-10T10:20:02.769Z,83.54
2017-08-10T10:25:03.149Z,83.74
2017-08-10T10:30:03.488Z,84.22
2017-08-10T10:35:02.840Z,83.36
2017-08-10T10:40:03.373Z,83.84
2017-08-10T10:45:02.704Z,82.97
2017-08-10T10:50:03.289Z,82.87
2017-08-10T10:55:02.676Z,82.78
2017-08-10T11:00:03.268Z,82.78
2017-08-10T11:05:02.735Z,82.87
2017-08-10T11:10:03.300Z,82.49
2017-08-10T11:15:02.814Z,82.4
2017-08-10T11:20:03.224Z,82.59
2017-08-10T11:25:02.712Z,82.3
2017-08-10T11:30:03.261Z,81.96
2017-08-10T11:35:02.611Z,81.96
2017-08-10T11:40:03.078Z,81.57
2017-08-10T11:45:02.677Z,81.19
2017-08-10T11:50:03.124Z,81.09
2017-08-10T11:55:02.589Z,81.76
2017-08-10T12:00:03.069Z,82.24
2017-08-10T12:05:03.464Z,82.53
2017-08-10T12:10:02.900Z,83.2
2017-08-10T12:15:03.401Z,83.69
2017-08-10T12:20:02.915Z,83.59
2017-08-10T12:25:03.306Z,84.01
2017-08-10T12:30:02.760Z,84.69
2017-08-10T12:35:03.358Z,85.98
2017-08-10T12:40:02.769Z,86.46
2017-08-10T12:45:03.238Z,87.95
2017-08-10T12:50:03.611Z,88.33
2017-08-10T12:55:02.949Z,88.81
2017-08-10T13:00:03.387Z,88.81
2017-08-10T13:05:02.900Z,89.01
2017-08-10T13:10:03.301Z,89.39
2017-08-10T13:15:02.716Z,89.1
2017-08-10T13:20:03.279Z,89.58
2017-08-10T13:25:02.752Z,89.78
2017-08-10T13:30:03.218Z,90.16
2017-08-10T13:35:02.686Z,90.26
2017-08-10T13:40:03.037Z,90.26
2017-08-10T13:45:03.372Z,90.64
2017-08-10T13:50:02.745Z,90.83
2017-08-10T13:55:03.221Z,91.22
2017-08-10T14:00:02.598Z,91.31
2017-08-10T14:05:03.042Z,91.31
2017-08-10T14:10:02.612Z,90.35
2017-08-10T14:15:03.101Z,91.22
2017-08-10T14:20:03.537Z,91.03
2017-08-10T14:25:03.122Z,90.64
2017-08-10T14:30:02.596Z,90.06
2017-08-10T14:35:03.060Z,90.26
2017-08-10T14:40:02.619Z,90.06
2017-08-10T14:45:03.103Z,90.45
2017-08-10T14:50:03.447Z,89.78
2017-08-10T14:55:02.883Z,88.91
2017-08-10T15:00:03.417Z,87.42
2017-08-10T15:05:02.825Z,87.13
2017-08-10T15:10:03.329Z,87.13
2017-08-10T15:15:02.673Z,86.94
2017-08-10T15:20:03.100Z,86.65
2017-08-10T15:25:03.426Z,86.22
2017-08-10T15:30:02.718Z,85.21
2017-08-10T15:35:03.226Z,85.4
2017-08-10T15:40:02.774Z,83.77
2017-08-10T15:45:03.298Z,83.06
2017-08-10T15:50:02.735Z,82.57
2017-08-10T15:55:03.094Z,82.86
2017-08-10T16:00:03.564Z,83.53
2017-08-10T16:05:02.909Z,83.44
2017-08-10T16:10:03.417Z,82.38
2017-08-10T16:15:02.761Z,82.73
2017-08-10T16:20:03.294Z,83.2
2017-08-10T16:25:02.610Z,83.3
2017-08-10T16:30:03.065Z,82.49
2017-08-10T16:35:02.637Z,81.63
2017-08-10T16:40:03.005Z,82.59
2017-08-10T16:45:03.283Z,82.87
2017-08-10T16:50:03.609Z,82.49
2017-08-10T16:55:02.959Z,82.3
2017-08-10T17:00:03.279Z,82.01
2017-08-10T17:05:02.827Z,81.34
2017-08-10T17:10:03.212Z,80.38
2017-08-10T17:15:02.673Z,79.8
2017-08-10T17:20:03.185Z,79.28
2017-08-10T17:25:02.718Z,78.9
2017-08-10T17:30:03.165Z,78.52
2017-08-10T17:35:03.536Z,77.84
2017-08-10T17:40:03.174Z,77.23
2017-08-10T17:45:02.632Z,77.33
2017-08-10T17:50:03.235Z,76.37
2017-08-10T17:55:02.758Z,75.89
2017-08-10T18:00:03.117Z,75.7
2017-08-10T18:05:03.445Z,75.6
2017-08-10T18:10:02.950Z,75.21
2017-08-10T18:15:03.359Z,74.26
2017-08-10T18:20:02.771Z,73.77
2017-08-10T18:25:03.080Z,73.39
2017-08-10T18:30:03.563Z,73.2
2017-08-10T18:35:02.855Z,72.43
2017-08-10T18:40:03.392Z,71.95
2017-08-10T18:45:02.812Z,70.29
2017-08-10T18:50:03.296Z,69.42
2017-08-10T18:55:03.575Z,68.46
2017-08-10T19:00:02.892Z,67.6
2017-08-10T19:05:03.303Z,66.03
2017-08-10T19:10:02.685Z,65.17
2017-08-10T19:15:03.073Z,64.5
2017-08-10T19:20:03.376Z,63.64
2017-08-10T19:25:02.755Z,62.96
2017-08-10T19:30:03.175Z,62.49
2017-08-10T19:35:03.415Z,62.01
2017-08-10T19:40:02.854Z,61.24
2017-08-10T19:45:03.197Z,60.86
2017-08-10T19:50:03.509Z,60.35
2017-08-10T19:55:02.927Z,59.97
2017-08-10T20:00:03.632Z,59.77
2017-08-10T20:05:02.930Z,59.58
2017-08-10T20:10:03.383Z,59.3
2017-08-10T20:15:02.818Z,59.01
2017-08-10T20:20:03.405Z,58.91
2017-08-10T20:25:02.783Z,58.72
2017-08-10T20:30:03.076Z,58.62
2017-08-10T20:35:03.460Z,58.62
2017-08-10T20:40:02.817Z,58.53
2017-08-10T20:45:03.147Z,58.53
2017-08-10T20:50:03.462Z,58.59
2017-08-10T20:55:02.885Z,58.4
2017-08-10T21:00:03.359Z,58.4
2017-08-10T21:05:02.656Z,58.4
2017-08-10T21:10:03.144Z,58.4
2017-08-10T21:15:03.428Z,58.4
2017-08-10T21:20:02.771Z,58.47
2017-08-10T21:25:03.196Z,58.59
2017-08-10T21:30:02.808Z,58.4
2017-08-10T21:35:03.196Z,58.31
2017-08-10T21:40:03.561Z,58.22
2017-08-10T21:45:02.991Z,58.22
2017-08-10T21:50:03.318Z,58.31
2017-08-10T21:55:02.625Z,58.31
2017-08-10T22:00:03.070Z,58.12
2017-08-10T22:05:03.510Z,58.02
2017-08-10T22:10:02.872Z,57.92
2017-08-10T22:15:03.268Z,57.92
2017-08-10T22:20:03.606Z,57.92
2017-08-10T22:25:02.948Z,57.83
2017-08-10T22:30:03.310Z,57.73
2017-08-10T22:35:02.759Z,57.64
2017-08-10T22:40:03.201Z,57.54
2017-08-10T22:45:02.589Z,57.45
2017-08-10T22:50:03.010Z,57.35
2017-08-10T22:55:03.338Z,57.35
2017-08-10T23:00:03.023Z,57.26
2017-08-10T23:05:02.877Z,57.35
2017-08-10T23:10:03.302Z,57.45
2017-08-10T23:15:03.610Z,57.54
2017-08-10T23:20:03.038Z,57.61
2017-08-10T23:25:03.358Z,57.8
2017-08-10T23:30:02.698Z,57.9
2017-08-10T23:35:03.092Z,58.09
2017-08-10T23:40:02.588Z,58.09
2017-08-10T23:45:02.959Z,58.18
2017-08-10T23:50:03.483Z,58.18
2017-08-10T23:55:02.885Z,58.28
